createdAt,value
2022-10-11T00:00:16.670Z,80.45
2022-10-11T00:03:04.105Z,80.44
2022-10-11T00:05:31.604Z,80.28
2022-10-11T00:07:58.732Z,80.63
2022-10-11T00:10:25.945Z,80.62
2022-10-11T00:12:53.244Z,80.42
2022-10-11T00:15:22.829Z,80.60
2022-10-11T00:17:50.566Z,80.38
2022-10-11T00:20:18.384Z,80.55
2022-10-11T00:22:45.350Z,80.98
2022-10-11T00:25:13.083Z,80.57
2022-10-11T00:27:40.522Z,81.12
2022-10-11T00:30:09.438Z,81.88
2022-10-11T00:32:38.332Z,81.42
2022-10-11T00:35:07.252Z,81.33
2022-10-11T00:37:35.817Z,80.95
2022-10-11T00:40:04.410Z,80.81
2022-10-11T00:42:32.208Z,80.90
2022-10-11T00:45:27.063Z,81.05
2022-10-11T00:47:56.576Z,81.21
2022-10-11T00:50:24.794Z,81.20
2022-10-11T00:53:00.223Z,81.07
2022-10-11T00:55:33.400Z,81.20
2022-10-11T00:58:01.369Z,81.28
2022-10-11T01:00:29.712Z,81.82
2022-10-11T01:02:57.015Z,81.38
2022-10-11T01:05:31.427Z,81.62
2022-10-11T01:08:02.701Z,81.55
2022-10-11T01:10:30.009Z,81.46
2022-10-11T01:13:17.030Z,81.70
2022-10-11T01:15:58.661Z,81.28
2022-10-11T01:19:00.108Z,81.36
2022-10-11T01:21:46.205Z,81.38
2022-10-11T01:24:25.239Z,81.35
2022-10-11T01:27:12.394Z,81.48
2022-10-11T01:30:01.442Z,81.35
2022-10-11T01:32:47.527Z,81.41
2022-10-11T01:35:37.341Z,81.56
2022-10-11T01:38:11.406Z,81.58
2022-10-11T01:40:45.742Z,81.69
2022-10-11T01:43:15.527Z,81.52
2022-10-11T01:45:44.828Z,81.67
2022-10-11T01:48:13.923Z,81.82
2022-10-11T01:50:46.176Z,82.13
2022-10-11T01:53:32.460Z,82.25
2022-10-11T01:56:29.252Z,82.08
2022-10-11T01:59:30.139Z,82.30
2022-10-11T02:02:25.272Z,82.35
2022-10-11T02:05:09.327Z,82.78
2022-10-11T02:07:56.932Z,83.24
2022-10-11T02:10:32.308Z,83.17
2022-10-11T02:13:16.929Z,83.31
2022-10-11T02:15:46.988Z,83.38
2022-10-11T02:18:19.805Z,83.69
2022-10-11T02:20:49.027Z,84.06
2022-10-11T02:23:35.172Z,83.73
2022-10-11T02:26:06.919Z,83.75
2022-10-11T02:28:38.188Z,83.71
2022-10-11T02:31:07.913Z,83.55
2022-10-11T02:34:05.138Z,83.52
2022-10-11T02:36:43.559Z,83.26
2022-10-11T02:39:24.304Z,83.66
2022-10-11T02:41:53.243Z,83.64
2022-10-11T02:44:32.070Z,83.68
2022-10-11T02:47:01.120Z,83.85
2022-10-11T02:49:33.173Z,83.73
2022-10-11T02:52:00.119Z,83.45
2022-10-11T02:54:27.413Z,83.51
2022-10-11T02:56:54.599Z,83.77
2022-10-11T02:59:21.589Z,83.66
2022-10-11T03:01:48.701Z,83.77
2022-10-11T03:04:16.206Z,83.80
2022-10-11T03:06:43.334Z,83.74
2022-10-11T03:09:10.448Z,83.74
2022-10-11T03:11:38.041Z,83.94
2022-10-11T03:14:05.182Z,83.91
2022-10-11T03:16:32.293Z,83.93
2022-10-11T03:18:59.559Z,83.98
2022-10-11T03:21:26.611Z,84.03
2022-10-11T03:23:53.691Z,83.74
2022-10-11T03:26:20.966Z,84.01
2022-10-11T03:28:47.998Z,84.31
2022-10-11T03:31:15.083Z,84.46
2022-10-11T03:33:42.646Z,84.26
2022-10-11T03:36:10.003Z,84.59
2022-10-11T03:38:36.960Z,84.29
2022-10-11T03:41:04.242Z,84.81
2022-10-11T03:43:32.518Z,84.79
2022-10-11T03:45:59.497Z,84.73
2022-10-11T03:48:27.019Z,84.79
2022-10-11T03:51:02.066Z,84.34
2022-10-11T03:53:37.664Z,84.16
2022-10-11T03:56:08.487Z,84.16
2022-10-11T03:58:36.600Z,83.92
2022-10-11T04:01:03.869Z,83.95
2022-10-11T04:03:31.938Z,83.90
2022-10-11T04:05:59.828Z,83.57
2022-10-11T04:08:27.036Z,83.48
2022-10-11T04:10:54.060Z,83.80
2022-10-11T04:13:21.695Z,84.09
2022-10-11T04:15:53.860Z,84.13
2022-10-11T04:18:43.114Z,84.21
2022-10-11T04:21:11.261Z,84.08
2022-10-11T04:23:40.612Z,84.30
2022-10-11T04:26:11.679Z,84.53
2022-10-11T04:28:39.478Z,84.61
2022-10-11T04:31:09.099Z,84.52
2022-10-11T04:33:44.486Z,84.99
2022-10-11T04:36:11.422Z,84.67
2022-10-11T04:38:40.489Z,84.96
2022-10-11T04:44:27.657Z,84.76
2022-10-11T04:46:54.878Z,84.83
2022-10-11T04:49:24.616Z,85.10
2022-10-11T04:55:20.644Z,84.46
2022-10-11T04:57:47.525Z,84.31
2022-10-11T05:00:18.329Z,84.19
2022-10-11T05:02:45.284Z,84.38
2022-10-11T05:05:17.520Z,84.40
2022-10-11T05:07:44.854Z,84.44
2022-10-11T05:10:11.881Z,84.46
2022-10-11T05:12:41.920Z,84.20
2022-10-11T05:15:09.698Z,84.39
2022-10-11T05:17:36.796Z,84.30
2022-10-11T05:20:04.223Z,84.50
2022-10-11T05:22:31.434Z,84.61
2022-10-11T05:25:00.080Z,84.53
2022-10-11T05:27:27.498Z,84.16
2022-10-11T05:29:54.838Z,84.53
2022-10-11T05:32:24.574Z,84.29
2022-10-11T05:35:02.590Z,84.13
2022-10-11T05:37:29.761Z,84.13
2022-10-11T05:39:59.216Z,84.16
2022-10-11T05:42:26.313Z,84.28
2022-10-11T05:44:53.371Z,84.00
2022-10-11T05:47:20.666Z,84.32
2022-10-11T05:49:47.772Z,84.29
2022-10-11T05:52:20.012Z,83.92
2022-10-11T05:54:50.996Z,83.73
2022-10-11T05:57:18.575Z,83.75
2022-10-11T05:59:48.322Z,83.69
2022-10-11T06:02:25.341Z,82.79
2022-10-11T06:04:52.411Z,82.61
2022-10-11T06:07:21.257Z,82.03
2022-10-11T06:09:48.553Z,81.89
2022-10-11T06:12:15.572Z,81.59
2022-10-11T06:14:43.889Z,81.41
2022-10-11T06:17:10.959Z,81.03
2022-10-11T06:19:37.999Z,80.85
2022-10-11T06:22:05.446Z,81.17
2022-10-11T06:24:36.679Z,81.03
2022-10-11T06:27:04.320Z,80.89
2022-10-11T06:29:32.022Z,81.00
2022-10-11T06:31:59.165Z,80.50
2022-10-11T06:34:26.870Z,80.30
2022-10-11T06:36:56.937Z,79.86
2022-10-11T06:39:24.190Z,79.75
2022-10-11T06:41:51.529Z,79.52
2022-10-11T06:44:18.839Z,79.17
2022-10-11T06:46:47.096Z,79.21
2022-10-11T06:49:22.195Z,78.93
2022-10-11T06:51:51.206Z,79.00
2022-10-11T06:54:21.642Z,78.32
2022-10-11T06:56:49.244Z,78.03
2022-10-11T06:59:18.714Z,77.30
2022-10-11T07:01:46.096Z,77.38
2022-10-11T07:04:13.153Z,77.46
2022-10-11T07:06:41.955Z,76.80
2022-10-11T07:09:09.526Z,76.69
2022-10-11T07:11:41.346Z,76.45
2022-10-11T07:14:10.817Z,75.79
2022-10-11T07:16:39.414Z,75.44
2022-10-11T07:19:07.125Z,74.98
2022-10-11T07:21:37.065Z,73.71
2022-10-11T07:24:05.145Z,72.70
2022-10-11T07:26:37.890Z,71.39
2022-10-11T07:29:12.303Z,71.33
2022-10-11T07:31:45.086Z,70.82
2022-10-11T07:34:12.698Z,69.80
2022-10-11T07:36:40.873Z,70.01
2022-10-11T07:39:11.639Z,68.75
2022-10-11T07:41:44.562Z,67.69
2022-10-11T07:44:15.892Z,67.58
2022-10-11T07:46:47.513Z,67.44
2022-10-11T07:49:14.707Z,66.59
2022-10-11T07:51:41.757Z,67.03
2022-10-11T07:54:18.319Z,67.01
2022-10-11T07:56:47.959Z,67.13
2022-10-11T07:59:16.665Z,66.58
2022-10-11T08:01:44.610Z,66.42
2022-10-11T08:04:11.842Z,64.78
2022-10-11T08:06:39.096Z,65.01
2022-10-11T08:09:06.452Z,64.02
2022-10-11T08:11:39.193Z,64.05
2022-10-11T08:14:09.135Z,64.20
2022-10-11T08:16:37.533Z,63.69
2022-10-11T08:19:05.778Z,62.93
2022-10-11T08:21:35.276Z,61.02
2022-10-11T08:24:04.906Z,60.90
2022-10-11T08:26:33.722Z,59.73
2022-10-11T08:29:05.463Z,59.41
2022-10-11T08:31:34.444Z,59.01
2022-10-11T08:34:01.740Z,58.94
2022-10-11T08:36:30.259Z,52.35
2022-10-11T08:39:06.936Z,49.46
2022-10-11T08:42:03.410Z,42.56
2022-10-11T08:45:12.517Z,38.58
2022-10-11T08:47:43.872Z,33.81
2022-10-11T08:50:21.173Z,32.23
2022-10-11T08:53:06.105Z,31.23
2022-10-11T08:55:39.732Z,30.57
2022-10-11T08:58:07.043Z,31.42
2022-10-11T09:00:42.682Z,30.94
2022-10-11T09:03:29.531Z,27.09
2022-10-11T09:06:21.694Z,25.41
2022-10-11T09:08:57.944Z,24.30
2022-10-11T09:11:50.064Z,23.68
2022-10-11T09:14:45.947Z,23.11
2022-10-11T09:17:47.266Z,20.07
2022-10-11T09:20:41.496Z,21.27
2022-10-11T09:23:27.305Z,20.55
2022-10-11T09:26:33.755Z,20.84
2022-10-11T09:29:32.268Z,20.10
2022-10-11T09:32:01.040Z,20.07
2022-10-11T09:34:36.060Z,19.93
2022-10-11T09:37:32.299Z,19.65
2022-10-11T09:40:44.358Z,18.43
2022-10-11T09:43:11.858Z,18.52
2022-10-11T09:48:41.291Z,20.50
2022-10-11T09:51:19.909Z,22.17
2022-10-11T09:53:56.906Z,22.60
2022-10-11T09:56:37.215Z,22.74
2022-10-11T09:59:31.268Z,23.64
2022-10-11T10:02:09.755Z,24.69
2022-10-11T10:05:15.432Z,25.99
2022-10-11T10:08:04.072Z,27.84
2022-10-11T10:10:35.956Z,29.03
2022-10-11T10:13:07.618Z,30.08
2022-10-11T10:15:37.015Z,30.35
2022-10-11T10:18:10.632Z,30.91
2022-10-11T10:20:40.753Z,32.09
2022-10-11T10:23:28.730Z,32.94
2022-10-11T10:26:12.407Z,33.08
2022-10-11T10:29:11.103Z,33.13
2022-10-11T10:32:13.459Z,33.84
2022-10-11T10:35:13.041Z,34.32
2022-10-11T10:38:27.246Z,34.14
2022-10-11T10:41:02.818Z,33.82
2022-10-11T10:43:37.551Z,33.70
2022-10-11T10:46:23.151Z,33.83
2022-10-11T10:49:48.319Z,33.62
2022-10-11T10:52:33.432Z,33.82
2022-10-11T10:55:12.684Z,34.35
2022-10-11T10:57:52.168Z,34.02
2022-10-11T11:00:21.831Z,33.38
2022-10-11T11:03:12.993Z,33.65
2022-10-11T11:05:40.181Z,34.15
2022-10-11T11:08:35.515Z,34.29
2022-10-11T11:11:08.502Z,34.84
2022-10-11T11:13:51.756Z,34.95
2022-10-11T11:16:32.942Z,35.22
2022-10-11T11:19:07.280Z,35.43
2022-10-11T11:21:54.603Z,35.00
2022-10-11T11:24:46.262Z,35.75
2022-10-11T11:27:37.997Z,35.26
2022-10-11T11:30:13.765Z,35.48
2022-10-11T11:32:55.795Z,35.67
2022-10-11T11:35:39.358Z,35.06
2022-10-11T11:38:42.698Z,34.97
2022-10-11T11:41:41.373Z,34.85
2022-10-11T11:44:23.801Z,34.78
2022-10-11T11:47:13.842Z,34.49
2022-10-11T11:49:46.590Z,34.35
2022-10-11T11:52:43.691Z,34.36
2022-10-11T11:55:32.380Z,34.23
2022-10-11T11:58:36.099Z,33.63
2022-10-11T12:01:31.149Z,32.19
2022-10-11T12:04:05.151Z,31.79
2022-10-11T12:06:35.908Z,31.95
2022-10-11T12:09:17.128Z,32.65
2022-10-11T12:12:25.850Z,32.68
2022-10-11T12:15:04.834Z,33.27
2022-10-11T12:17:34.917Z,32.87
2022-10-11T12:20:40.300Z,32.85
2022-10-11T12:23:30.718Z,33.22
2022-10-11T12:26:28.203Z,32.48
2022-10-11T12:29:28.817Z,32.82
2022-10-11T12:32:14.931Z,32.21
2022-10-11T12:34:45.534Z,31.96
2022-10-11T12:37:19.526Z,32.79
2022-10-11T12:39:51.892Z,33.01
2022-10-11T12:42:23.038Z,32.63
2022-10-11T12:45:13.014Z,32.40
2022-10-11T12:48:00.338Z,32.04
2022-10-11T12:50:41.782Z,31.58
2022-10-11T12:53:30.758Z,32.24
2022-10-11T12:56:09.006Z,32.74
2022-10-11T12:58:47.140Z,32.89
2022-10-11T13:01:19.722Z,32.49
2022-10-11T13:03:57.683Z,32.33
2022-10-11T13:06:29.518Z,33.21
2022-10-11T13:09:30.530Z,32.58
2022-10-11T13:12:08.809Z,33.14
2022-10-11T13:14:42.564Z,33.50
2022-10-11T13:17:27.106Z,33.80
2022-10-11T13:20:06.571Z,33.76
2022-10-11T13:22:37.788Z,33.38
2022-10-11T13:25:06.922Z,33.94
2022-10-11T13:27:36.451Z,32.89
2022-10-11T13:30:08.689Z,33.28
2022-10-11T13:32:37.061Z,33.23
2022-10-11T13:35:07.557Z,33.25
2022-10-11T13:37:44.326Z,33.33
2022-10-11T13:40:20.449Z,33.63
2022-10-11T13:42:50.798Z,34.09
2022-10-11T13:45:21.782Z,34.04
2022-10-11T13:47:50.762Z,34.66
2022-10-11T13:50:17.643Z,33.85
2022-10-11T13:52:59.133Z,34.52
2022-10-11T13:55:35.585Z,33.90
2022-10-11T13:58:14.983Z,33.74
2022-10-11T14:00:54.990Z,34.78
2022-10-11T14:03:27.066Z,32.56
2022-10-11T14:06:00.735Z,31.68
2022-10-11T14:08:44.018Z,31.92
2022-10-11T14:11:13.233Z,32.28
2022-10-11T14:13:44.995Z,32.16
2022-10-11T14:16:18.407Z,32.30
2022-10-11T14:18:50.242Z,32.43
2022-10-11T14:21:20.711Z,32.55
2022-10-11T14:23:51.311Z,32.36
2022-10-11T14:26:20.631Z,32.07
2022-10-11T14:28:56.634Z,32.35
2022-10-11T14:31:24.545Z,32.68
2022-10-11T14:33:54.177Z,32.44
2022-10-11T14:36:27.925Z,33.18
2022-10-11T14:39:03.871Z,33.50
2022-10-11T14:41:36.760Z,33.94
2022-10-11T14:44:05.155Z,34.30
2022-10-11T14:46:34.599Z,34.28
2022-10-11T14:49:16.461Z,34.61
2022-10-11T14:51:46.556Z,34.90
2022-10-11T14:54:32.935Z,34.79
2022-10-11T14:57:03.236Z,35.06
2022-10-11T14:59:37.527Z,35.24
2022-10-11T15:02:08.772Z,36.17
2022-10-11T15:04:36.861Z,36.99
2022-10-11T15:07:06.192Z,37.74
2022-10-11T15:09:34.837Z,38.25
2022-10-11T15:12:05.218Z,39.10
2022-10-11T15:14:33.457Z,39.86
2022-10-11T15:17:00.475Z,40.49
2022-10-11T15:19:27.902Z,41.34
2022-10-11T15:21:54.942Z,41.55
2022-10-11T15:24:22.994Z,41.76
2022-10-11T15:26:52.299Z,42.28
2022-10-11T15:29:20.562Z,42.70
2022-10-11T15:31:52.584Z,44.13
2022-10-11T15:34:20.418Z,45.39
2022-10-11T15:36:50.502Z,46.21
2022-10-11T15:39:32.670Z,47.03
2022-10-11T15:42:01.206Z,47.65
2022-10-11T15:44:28.419Z,48.77
2022-10-11T15:47:02.480Z,49.43
2022-10-11T15:49:32.244Z,49.36
2022-10-11T15:51:59.510Z,49.73
2022-10-11T15:54:26.515Z,49.90
2022-10-11T15:56:54.426Z,50.02
2022-10-11T15:59:21.847Z,49.99
2022-10-11T16:01:50.805Z,51.49
2022-10-11T16:04:18.056Z,52.21
2022-10-11T16:06:45.451Z,51.96
2022-10-11T16:09:14.924Z,51.69
2022-10-11T16:11:42.525Z,52.85
2022-10-11T16:14:10.096Z,52.78
2022-10-11T16:16:42.546Z,52.96
2022-10-11T16:19:12.284Z,52.66
2022-10-11T16:21:39.606Z,53.13
2022-10-11T16:24:07.479Z,52.35
2022-10-11T16:26:34.867Z,52.01
2022-10-11T16:29:01.942Z,52.62
2022-10-11T16:31:29.908Z,52.13
2022-10-11T16:33:57.995Z,52.40
2022-10-11T16:36:42.188Z,52.43
2022-10-11T16:39:17.622Z,52.58
2022-10-11T16:41:59.760Z,52.44
2022-10-11T16:44:28.026Z,53.09
2022-10-11T16:49:47.246Z,53.41
2022-10-11T16:52:15.678Z,53.13
2022-10-11T16:55:18.860Z,53.92
2022-10-11T16:57:48.973Z,54.04
2022-10-11T17:00:32.124Z,54.49
2022-10-11T17:03:02.749Z,54.20
2022-10-11T17:08:31.162Z,53.99
2022-10-11T17:11:06.641Z,54.87
2022-10-11T17:13:44.367Z,54.64
2022-10-11T17:16:13.339Z,54.42
2022-10-11T17:18:48.555Z,54.89
2022-10-11T17:21:34.373Z,55.56
2022-10-11T17:24:21.498Z,56.10
2022-10-11T17:26:59.817Z,56.40
2022-10-11T17:29:34.958Z,56.55
2022-10-11T17:32:09.150Z,56.01
2022-10-11T17:34:36.375Z,56.25
2022-10-11T17:39:45.745Z,55.81
2022-10-11T17:42:24.110Z,55.78
2022-10-11T17:44:51.600Z,56.58
2022-10-11T17:47:25.687Z,57.03
2022-10-11T17:49:59.353Z,57.27
2022-10-11T17:52:29.525Z,57.12
2022-10-11T17:54:57.068Z,58.85
2022-10-11T17:57:26.028Z,59.87
2022-10-11T17:59:54.009Z,60.86
2022-10-11T18:02:22.826Z,59.95
2022-10-11T18:04:53.863Z,59.78
2022-10-11T18:08:17.764Z,59.31
2022-10-11T18:10:47.809Z,60.26
2022-10-11T18:13:15.511Z,59.99
2022-10-11T18:15:44.690Z,60.27
2022-10-11T18:18:22.019Z,61.15
2022-10-11T18:20:50.841Z,61.76
2022-10-11T18:23:27.463Z,62.05
2022-10-11T18:28:47.015Z,61.74
2022-10-11T18:31:24.299Z,62.34
2022-10-11T18:33:55.317Z,62.36
2022-10-11T18:39:27.946Z,62.66
2022-10-11T18:41:55.240Z,63.31
2022-10-11T18:44:39.997Z,63.55
2022-10-11T18:47:17.103Z,63.95
2022-10-11T18:49:46.826Z,64.02
2022-10-11T18:55:31.957Z,64.48
2022-10-11T18:58:03.493Z,64.88
2022-10-11T19:00:40.524Z,65.82
2022-10-11T19:03:09.065Z,65.76
2022-10-11T19:05:40.080Z,66.30
2022-10-11T19:08:14.331Z,66.17
2022-10-11T19:10:41.853Z,66.33
2022-10-11T19:13:09.884Z,66.38
2022-10-11T19:15:37.148Z,66.71
2022-10-11T19:18:04.226Z,66.47
2022-10-11T19:20:35.836Z,66.05
2022-10-11T19:23:03.341Z,66.62
2022-10-11T19:25:30.728Z,66.45
2022-10-11T19:31:08.526Z,66.93
2022-10-11T19:33:36.109Z,67.42
2022-10-11T19:36:05.608Z,67.36
2022-10-11T19:38:35.063Z,67.44
2022-10-11T19:41:03.624Z,67.37
2022-10-11T19:43:32.146Z,67.69
2022-10-11T19:46:03.549Z,67.92
2022-10-11T19:48:30.949Z,67.77
2022-10-11T19:51:09.518Z,68.24
2022-10-11T19:53:38.442Z,68.36
2022-10-11T19:56:12.409Z,68.30
2022-10-11T19:58:39.973Z,68.41
2022-10-11T20:01:10.382Z,68.26
2022-10-11T20:03:38.544Z,68.36
2022-10-11T20:06:08.125Z,68.50
2022-10-11T20:08:36.680Z,68.48
2022-10-11T20:11:09.525Z,68.32
2022-10-11T20:13:37.764Z,68.50
2022-10-11T20:16:10.585Z,68.44
2022-10-11T20:19:04.085Z,68.49
2022-10-11T20:25:18.063Z,68.43
2022-10-11T20:27:47.520Z,68.35
2022-10-11T20:30:15.485Z,68.23
2022-10-11T20:32:44.030Z,68.36
2022-10-11T20:35:11.731Z,68.58
2022-10-11T20:37:40.004Z,68.50
2022-10-11T20:40:07.556Z,69.09
2022-10-11T20:42:35.071Z,69.11
2022-10-11T20:45:02.161Z,68.90
2022-10-11T20:47:29.245Z,68.71
2022-10-11T20:49:56.429Z,68.33
2022-10-11T20:52:25.907Z,68.64
2022-10-11T20:54:52.999Z,68.56
2022-10-11T20:57:20.223Z,68.43
2022-10-11T20:59:48.051Z,68.39
2022-10-11T21:02:18.839Z,68.33
2022-10-11T21:04:46.410Z,68.28
2022-10-11T21:07:13.360Z,68.52
2022-10-11T21:09:40.597Z,68.68
2022-10-11T21:12:07.700Z,69.32
2022-10-11T21:14:34.879Z,70.24
2022-10-11T21:17:01.946Z,69.72
2022-10-11T21:19:29.694Z,68.90
2022-10-11T21:21:57.242Z,68.77
2022-10-11T21:24:24.173Z,69.44
2022-10-11T21:26:51.571Z,69.94
2022-10-11T21:29:23.137Z,69.65
2022-10-11T21:31:50.193Z,70.21
2022-10-11T21:34:17.788Z,71.12
2022-10-11T21:36:44.861Z,70.48
2022-10-11T21:39:11.959Z,70.26
2022-10-11T21:41:42.469Z,70.51
2022-10-11T21:44:10.851Z,70.64
2022-10-11T21:47:04.904Z,71.70
2022-10-11T21:49:25.416Z,71.60
2022-10-11T21:54:52.026Z,71.96
2022-10-11T21:57:19.722Z,72.04
2022-10-11T21:59:46.767Z,72.39
2022-10-11T22:02:13.795Z,72.38
2022-10-11T22:04:41.014Z,71.96
2022-10-11T22:07:08.039Z,71.78
2022-10-11T22:09:35.149Z,71.83
2022-10-11T22:12:03.238Z,71.67
2022-10-11T22:14:30.927Z,71.75
2022-10-11T22:16:58.396Z,71.50
2022-10-11T22:19:25.705Z,71.59
2022-10-11T22:21:52.871Z,71.46
2022-10-11T22:24:19.913Z,71.59
2022-10-11T22:26:47.190Z,71.81
2022-10-11T22:29:14.186Z,71.60
2022-10-11T22:31:41.546Z,71.54
2022-10-11T22:34:08.920Z,71.31
2022-10-11T22:36:36.284Z,71.45
2022-10-11T22:39:08.391Z,71.62
2022-10-11T22:41:36.126Z,71.79
2022-10-11T22:44:03.950Z,71.76
2022-10-11T22:46:31.349Z,71.85
2022-10-11T22:48:58.708Z,72.02
2022-10-11T22:51:25.955Z,72.50
2022-10-11T22:53:53.117Z,72.38
2022-10-11T22:56:20.450Z,72.13
2022-10-11T22:58:47.529Z,72.47
2022-10-11T23:01:18.221Z,72.07
2022-10-11T23:03:49.358Z,72.71
2022-10-11T23:06:16.610Z,72.80
2022-10-11T23:08:44.525Z,72.93
2022-10-11T23:11:12.750Z,72.60
2022-10-11T23:13:39.749Z,72.92
2022-10-11T23:16:12.073Z,72.95
2022-10-11T23:18:40.954Z,72.95
2022-10-11T23:21:10.303Z,72.99
2022-10-11T23:23:39.948Z,72.99
2022-10-11T23:26:16.941Z,72.78
2022-10-11T23:28:44.498Z,72.71
2022-10-11T23:31:17.569Z,72.43
2022-10-11T23:33:45.964Z,72.66
2022-10-11T23:36:16.989Z,72.04
2022-10-11T23:38:45.279Z,71.50
2022-10-11T23:41:12.269Z,71.54
2022-10-11T23:43:39.518Z,70.88
2022-10-11T23:46:06.610Z,71.30
2022-10-11T23:48:33.627Z,71.86
2022-10-11T23:51:01.204Z,72.39
2022-10-11T23:53:28.620Z,72.66
2022-10-11T23:55:55.682Z,72.74
2022-10-11T23:58:23.078Z,73.11
